Time;durP1;ratioP1;P1;durP2;ratioP2;P2;SDS_P1;SDS_P2;PMS_P1;PMS_P2;Temp;Humidity;BMP_temperature;BMP_pressure;BME280_temperature;BME280_humidity;BME280_pressure;Samples;Min_cycle;Max_cycle;Signal;HPM_P1;HPM_P2
2022/04/26 03:36:43;;;;;;;2.58;1.00;;;2.00;95.30;;;;;;5876078;23;20108;-72
2022/04/26 03:39:10;;;;;;;7.38;0.80;;;1.90;95.50;;;;;;4970765;28;20034;-71
2022/04/26 03:41:37;;;;;;;0.70;0.70;;;2.00;96.00;;;;;;4972535;28;20085;-72
2022/04/26 03:44:03;;;;;;;3.78;0.70;;;2.00;96.10;;;;;;4972563;28;20078;-71
2022/04/26 03:46:28;;;;;;;2.15;0.70;;;2.00;96.10;;;;;;4972702;28;20034;-71
2022/04/26 03:48:54;;;;;;;3.40;0.60;;;2.10;95.90;;;;;;4978707;28;20221;-72
2022/04/26 03:51:20;;;;;;;8.10;1.02;;;2.30;95.50;;;;;;4972663;28;20023;-71
2022/04/26 03:53:48;;;;;;;1.17;0.70;;;2.60;95.00;;;;;;4972630;28;20065;-72
2022/04/26 03:56:14;;;;;;;0.88;0.80;;;2.90;94.10;;;;;;4972699;28;20026;-72
2022/04/26 03:58:40;;;;;;;2.97;0.50;;;3.20;93.30;;;;;;4971359;28;20042;-72
2022/04/26 04:01:06;;;;;;;2.85;0.75;;;3.60;92.20;;;;;;4972534;28;20093;-71
2022/04/26 04:03:32;;;;;;;4.13;0.70;;;3.90;91.20;;;;;;4972513;28;20034;-71
2022/04/26 04:05:57;;;;;;;0.68;0.50;;;4.20;89.90;;;;;;4972677;28;20058;-72
2022/04/26 04:08:23;;;;;;;4.50;0.88;;;4.50;87.70;;;;;;4972514;28;20486;-71
2022/04/26 04:10:49;;;;;;;1.95;0.60;;;4.90;86.20;;;;;;4975003;28;20109;-71
2022/04/26 04:13:16;;;;;;;8.98;0.77;;;5.10;84.40;;;;;;4975936;28;20038;-73
2022/04/26 04:15:42;;;;;;;4.93;0.63;;;5.40;83.10;;;;;;4975895;28;20029;-72
2022/04/26 04:19:17;;;;;;;2.33;0.60;;;5.70;81.70;;;;;;4975673;28;20390;-72
2022/04/26 04:20:53;;;;;;;3.20;0.70;;;6.00;79.30;;;;;;4975504;28;20030;-71
2022/04/26 04:23:20;;;;;;;1.50;0.70;;;6.40;77.30;;;;;;4975551;28;20466;-71
2022/04/26 04:25:46;;;;;;;1.45;0.50;;;6.60;75.80;;;;;;4975583;28;20023;-72
2022/04/26 04:28:11;;;;;;;0.40;0.40;;;6.90;73.40;;;;;;4975390;28;20038;-72
2022/04/26 04:30:37;;;;;;;1.40;0.73;;;7.20;72.30;;;;;;4958559;28;20074;-80
2022/04/26 04:33:03;;;;;;;1.23;0.60;;;7.40;69.20;;;;;;4975478;28;20394;-75
2022/04/26 04:35:29;;;;;;;1.77;0.50;;;7.60;69.60;;;;;;4975516;28;20451;-76
2022/04/26 04:37:54;;;;;;;0.85;0.43;;;8.80;92.70;;;;;;4975069;28;20101;-72
2022/04/26 04:40:20;;;;;;;2.05;0.52;;;9.70;71.20;;;;;;4975647;28;20470;-77
2022/04/26 04:42:46;;;;;;;1.15;0.43;;;9.30;62.60;;;;;;4975085;28;20097;-69
2022/04/26 04:45:12;;;;;;;1.27;0.60;;;9.10;61.90;;;;;;4990550;28;20057;-69
2022/04/26 04:47:37;;;;;;;2.28;0.50;;;9.00;60.70;;;;;;4994170;28;20381;-68
2022/04/26 04:50:03;;;;;;;1.40;0.40;;;8.90;59.90;;;;;;4994003;28;20031;-68
2022/04/26 04:52:29;;;;;;;2.33;0.60;;;8.80;59.60;;;;;;4993805;28;20061;-68
2022/04/26 04:54:55;;;;;;;0.60;0.50;;;8.90;59.90;;;;;;4992488;28;20050;-68
2022/04/26 04:57:21;;;;;;;0.50;0.50;;;8.90;58.40;;;;;;4993827;28;20470;-74
2022/04/26 04:59:47;;;;;;;1.77;0.60;;;9.00;58.20;;;;;;4973551;28;20019;-74
2022/04/26 05:02:12;;;;;;;0.88;0.50;;;9.00;57.40;;;;;;4988308;28;20022;-74
2022/04/26 05:04:39;;;;;;;0.73;0.50;;;8.90;55.90;;;;;;4988441;28;20022;-72
2022/04/26 05:07:07;;;;;;;1.65;0.60;;;9.00;55.90;;;;;;4987012;28;20034;-74
2022/04/26 05:09:33;;;;;;;1.67;0.70;;;9.20;55.70;;;;;;4985561;28;20026;-72
2022/04/26 05:11:58;;;;;;;0.88;0.35;;;9.30;55.30;;;;;;4974580;28;20471;-72
2022/04/26 05:14:24;;;;;;;1.13;0.40;;;9.80;73.60;;;;;;4978058;28;20481;-74
2022/04/26 05:16:50;;;;;;;2.53;0.70;;;10.30;56.20;;;;;;4994008;28;20022;-73
2022/04/26 05:19:15;;;;;;;2.47;0.50;;;10.10;54.00;;;;;;4993940;28;20478;-73
2022/04/26 05:21:41;;;;;;;1.55;0.57;;;10.10;53.10;;;;;;4993628;28;20030;-73
2022/04/26 05:26:51;;;;;;;1.23;0.52;;;10.20;51.20;;;;;;4994141;28;20029;-73
2022/04/26 05:29:17;;;;;;;1.15;0.70;;;10.20;50.60;;;;;;4993552;28;20042;-73
2022/04/26 05:31:42;;;;;;;1.45;0.40;;;10.10;50.50;;;;;;4993787;28;20069;-73
2022/04/26 05:34:08;;;;;;;1.13;0.47;;;9.90;49.90;;;;;;4980428;28;20031;-73
2022/04/26 05:36:34;;;;;;;3.75;0.50;;;10.00;50.30;;;;;;4956893;28;20022;-73
2022/04/26 05:39:01;;;;;;;1.17;0.60;;;9.80;48.70;;;;;;4974249;28;20031;-69
2022/04/26 05:41:26;;;;;;;1.17;0.40;;;9.90;48.80;;;;;;4974279;28;20481;-69
2022/04/26 05:43:52;;;;;;;2.40;0.70;;;9.90;49.30;;;;;;4974241;28;20054;-71
2022/04/26 05:46:18;;;;;;;0.40;0.40;;;9.90;49.30;;;;;;4974062;28;20034;-70
2022/04/26 05:48:43;;;;;;;1.55;0.60;;;10.00;48.50;;;;;;4973989;28;20038;-70
2022/04/26 05:51:09;;;;;;;2.63;0.45;;;10.20;49.40;;;;;;4973932;28;20018;-77
2022/04/26 05:53:35;;;;;;;7.18;0.65;;;10.40;53.30;;;;;;4980077;28;20065;-78
2022/04/26 05:56:04;;;;;;;0.65;0.40;;;10.70;48.10;;;;;;4993263;28;20477;-76
2022/04/26 05:58:30;;;;;;;2.47;0.50;;;11.30;57.40;;;;;;4990506;28;20042;-75
2022/04/26 06:00:55;;;;;;;0.45;0.32;;;12.10;65.50;;;;;;4985213;28;20112;-80
2022/04/26 06:03:21;;;;;;;1.48;0.55;;;13.10;63.50;;;;;;4956581;28;20031;-84
2022/04/26 06:05:47;;;;;;;0.60;0.40;;;13.00;48.10;;;;;;4966509;28;20030;-84
2022/04/26 06:08:12;;;;;;;4.57;0.52;;;11.80;45.50;;;;;;4993059;28;20482;-83
2022/04/26 06:10:42;;;;;;;0.82;0.30;;;11.20;46.30;;;;;;4993950;28;20044;-74
2022/04/26 06:13:08;;;;;;;0.50;0.40;;;10.60;43.90;;;;;;4990087;28;20030;-78
2022/04/26 06:15:34;;;;;;;1.02;0.40;;;10.60;54.20;;;;;;4992923;28;20026;-87
2022/04/26 06:18:00;;;;;;;1.42;0.60;;;10.80;46.80;;;;;;4991372;28;20537;-82
2022/04/26 06:20:25;;;;;;;1.63;0.60;;;10.30;46.10;;;;;;4992659;28;20030;-82
2022/04/26 06:22:51;;;;;;;1.20;0.45;;;9.90;46.80;;;;;;4992279;28;20041;-81
2022/04/26 06:25:17;;;;;;;1.27;0.45;;;9.70;46.40;;;;;;4992512;28;20031;-79
2022/04/26 06:27:43;;;;;;;1.38;0.40;;;9.60;46.00;;;;;;4991038;28;20030;-81
2022/04/26 06:30:09;;;;;;;1.85;0.55;;;9.80;45.40;;;;;;4977086;28;20364;-78
2022/04/26 06:32:35;;;;;;;0.60;0.30;;;9.90;44.70;;;;;;4972644;28;20465;-77
2022/04/26 06:35:01;;;;;;;0.65;0.40;;;9.50;43.40;;;;;;4992279;28;20026;-77
2022/04/26 06:37:27;;;;;;;0.50;0.50;;;9.20;44.60;;;;;;4991758;28;20070;-83
2022/04/26 06:39:53;;;;;;;3.80;0.50;;;9.00;45.30;;;;;;4992277;28;20026;-85
2022/04/26 06:42:19;;;;;;;1.35;0.70;;;8.80;45.50;;;;;;4991637;28;20027;-77
2022/04/26 06:44:45;;;;;;;2.97;0.40;;;8.70;45.60;;;;;;4991547;28;20031;-78
2022/04/26 06:47:11;;;;;;;2.00;0.50;;;8.70;46.80;;;;;;4991234;28;20014;-77
2022/04/26 06:49:37;;;;;;;1.65;0.52;;;8.80;46.60;;;;;;4993179;28;20401;-78
2022/04/26 06:52:03;;;;;;;10.68;0.68;;;8.90;46.30;;;;;;4992107;28;20049;-72
2022/04/26 06:54:28;;;;;;;0.73;0.40;;;8.90;50.90;;;;;;4991953;28;20026;-72
2022/04/26 06:56:54;;;;;;;1.02;0.45;;;9.30;52.30;;;;;;4991729;28;20025;-73
2022/04/26 06:59:20;;;;;;;3.70;0.75;;;9.10;48.20;;;;;;4991300;28;20027;-76
2022/04/26 07:01:52;;;;;;;0.98;0.68;;;9.30;61.00;;;;;;4995232;28;20041;-77
2022/04/26 07:04:18;;;;;;;1.95;0.40;;;9.60;50.80;;;;;;4993237;28;20030;-80
2022/04/26 07:06:45;;;;;;;2.80;0.50;;;9.50;47.20;;;;;;4991998;28;20101;-81
2022/04/26 07:09:11;;;;;;;2.97;0.68;;;8.90;46.80;;;;;;4992445;28;20038;-81
2022/04/26 07:11:36;;;;;;;1.88;0.80;;;8.30;46.40;;;;;;4992837;28;20546;-81
2022/04/26 07:14:02;;;;;;;1.45;0.57;;;8.00;47.90;;;;;;4992339;28;20441;-82
2022/04/26 07:16:28;;;;;;;1.88;0.40;;;7.90;47.60;;;;;;4992510;28;20018;-80
2022/04/26 07:18:54;;;;;;;1.20;0.55;;;7.80;47.30;;;;;;4991990;28;20026;-81
2022/04/26 07:21:19;;;;;;;7.18;0.68;;;7.60;47.70;;;;;;4991993;28;20022;-81
2022/04/26 07:23:45;;;;;;;1.55;0.70;;;7.30;47.60;;;;;;4992180;28;20101;-81
2022/04/26 07:26:11;;;;;;;0.88;0.50;;;7.10;48.10;;;;;;4992043;28;20508;-81
2022/04/26 07:28:36;;;;;;;0.43;0.38;;;7.00;48.40;;;;;;4992351;28;20066;-81
2022/04/26 07:31:03;;;;;;;1.05;0.52;;;6.80;48.40;;;;;;4991873;28;20543;-81
2022/04/26 07:36:13;;;;;;;1.10;0.40;;;6.70;49.10;;;;;;4991898;28;20117;-81
2022/04/26 07:38:39;;;;;;;0.75;0.50;;;6.50;48.80;;;;;;4991370;28;20136;-81
2022/04/26 07:41:07;;;;;;;0.98;0.30;;;6.60;49.70;;;;;;5011272;28;20025;-81
2022/04/26 07:43:33;;;;;;;1.00;0.40;;;6.70;49.60;;;;;;5012177;28;20030;-81
2022/04/26 07:45:59;;;;;;;1.77;0.43;;;6.80;48.40;;;;;;5015499;28;20022;-81
2022/04/26 07:48:25;;;;;;;0.90;0.70;;;6.80;47.90;;;;;;5015335;28;20437;-81
2022/04/26 07:50:51;;;;;;;1.05;0.35;;;6.90;47.70;;;;;;5015419;28;20018;-81
2022/04/26 07:53:17;;;;;;;0.30;0.30;;;6.80;47.20;;;;;;4981325;28;20503;-81
2022/04/26 07:55:42;;;;;;;0.73;0.50;;;6.70;46.70;;;;;;5015357;28;20033;-81
2022/04/26 07:58:08;;;;;;;2.65;0.60;;;6.60;46.50;;;;;;5015209;28;20037;-81
2022/04/26 08:00:35;;;;;;;1.88;0.52;;;6.60;47.00;;;;;;5015261;28;20453;-81
2022/04/26 08:03:02;;;;;;;1.00;0.40;;;6.50;46.60;;;;;;5014654;28;20022;-81
2022/04/26 08:05:31;;;;;;;1.27;0.50;;;6.40;46.80;;;;;;5015107;28;20038;-81
2022/04/26 08:07:57;;;;;;;1.10;0.50;;;6.40;47.10;;;;;;5014840;28;20030;-81
2022/04/26 08:10:23;;;;;;;0.73;0.35;;;6.40;47.10;;;;;;5014692;28;20026;-81
2022/04/26 08:12:49;;;;;;;1.35;0.43;;;6.30;47.20;;;;;;5014942;28;20037;-81
2022/04/26 08:15:14;;;;;;;1.75;0.50;;;6.40;46.80;;;;;;5016260;28;20030;-81
2022/04/26 08:17:41;;;;;;;0.65;0.45;;;6.20;46.50;;;;;;5014574;28;20057;-80
2022/04/26 08:20:10;;;;;;;1.02;0.40;;;6.20;46.90;;;;;;5014802;28;20453;-81
2022/04/26 08:22:36;;;;;;;0.82;0.40;;;6.20;46.50;;;;;;5014479;28;20034;-81
2022/04/26 08:27:46;;;;;;;12.25;1.15;;;6.30;47.40;;;;;;4999995;28;20095;-81
2022/04/26 08:30:12;;;;;;;1.13;0.47;;;6.30;46.80;;;;;;5014596;28;20447;-81
2022/04/26 08:32:43;;;;;;;1.33;0.50;;;6.20;46.70;;;;;;5014645;28;20045;-81
2022/04/26 08:35:11;;;;;;;0.90;0.50;;;6.10;46.20;;;;;;5014551;28;20393;-81
2022/04/26 08:37:38;;;;;;;0.75;0.40;;;6.00;46.70;;;;;;5005742;28;20042;-81
2022/04/26 08:40:07;;;;;;;0.65;0.50;;;6.10;47.10;;;;;;4994621;28;20101;-82
2022/04/26 08:42:37;;;;;;;1.35;0.60;;;6.10;47.90;;;;;;4994729;28;20497;-80
2022/04/26 08:45:08;;;;;;;1.30;0.47;;;6.20;47.50;;;;;;4994603;28;20037;-81
2022/04/26 08:53:05;;;;;;;1.45;0.60;;;6.30;46.80;;;;;;4994432;28;20084;-82
2022/04/26 08:55:32;;;;;;;2.53;0.47;;;6.30;47.10;;;;;;4995234;28;20018;-81
2022/04/26 08:57:58;;;;;;;1.23;0.45;;;6.40;47.10;;;;;;4995157;28;20022;-80
2022/04/26 09:00:25;;;;;;;0.40;0.40;;;6.30;46.30;;;;;;4994441;28;20030;-82
2022/04/26 09:03:02;;;;;;;2.75;0.40;;;6.30;47.40;;;;;;4994497;28;20430;-82
2022/04/26 09:05:28;;;;;;;1.27;0.50;;;6.30;47.60;;;;;;4997325;28;20521;-80
2022/04/26 09:07:54;;;;;;;0.75;0.40;;;6.30;47.30;;;;;;4978624;28;20049;-80
2022/04/26 09:10:21;;;;;;;5.20;0.63;;;6.20;47.30;;;;;;4994280;28;20026;-79
2022/04/26 09:13:25;;;;;;;0.65;0.35;;;6.30;47.10;;;;;;4994538;28;20107;-80
2022/04/26 09:15:56;;;;;;;1.65;0.50;;;6.40;47.30;;;;;;4933976;29;20535;-80
2022/04/26 09:18:30;;;;;;;1.35;0.50;;;6.60;48.70;;;;;;4933703;29;20043;-82
2022/04/26 09:21:09;;;;;;;0.85;0.40;;;6.70;47.70;;;;;;4967450;28;20093;-82
2022/04/26 09:23:38;;;;;;;0.70;0.40;;;6.80;48.00;;;;;;4994006;28;20065;-82
2022/04/26 09:26:07;;;;;;;0.50;0.45;;;6.60;47.00;;;;;;4976354;28;20037;-82
2022/04/26 09:28:34;;;;;;;1.33;0.50;;;6.40;47.30;;;;;;4993855;28;20393;-81
2022/04/26 09:31:00;;;;;;;1.30;0.40;;;6.40;47.70;;;;;;4995182;28;20110;-80
2022/04/26 09:33:43;;;;;;;1.63;0.68;;;6.30;47.50;;;;;;4998794;28;20430;-81
2022/04/26 09:36:10;;;;;;;1.02;0.40;;;6.20;47.50;;;;;;4993356;28;20172;-81
2022/04/26 09:38:41;;;;;;;25.40;1.52;;;6.20;47.20;;;;;;4993851;28;20416;-82
2022/04/26 09:41:09;;;;;;;0.90;0.50;;;6.10;46.50;;;;;;5013413;28;20440;-81
2022/04/26 09:43:36;;;;;;;0.65;0.40;;;6.10;47.10;;;;;;5013322;28;20026;-81
2022/04/26 09:46:04;;;;;;;0.50;0.43;;;6.10;47.60;;;;;;5013114;28;20025;-81
2022/04/26 09:48:37;;;;;;;10.27;1.52;;;6.10;48.00;;;;;;5012868;28;20061;-81
2022/04/26 09:51:07;;;;;;;1.38;0.43;;;6.10;48.40;;;;;;5013062;28;20014;-82
2022/04/26 09:53:33;;;;;;;1.00;0.77;;;6.00;47.60;;;;;;5013189;28;20033;-81
2022/04/26 09:56:04;;;;;;;1.67;0.40;;;5.90;47.90;;;;;;5012996;28;20029;-81
2022/04/26 09:58:31;;;;;;;0.88;0.57;;;5.90;47.60;;;;;;5013006;28;20396;-80
2022/04/26 10:01:01;;;;;;;5.05;0.50;;;5.90;47.60;;;;;;5012968;28;20117;-81
2022/04/26 10:03:34;;;;;;;1.63;0.95;;;6.00;49.30;;;;;;5012996;28;20034;-82
2022/04/26 10:06:02;;;;;;;2.33;0.40;;;6.10;48.20;;;;;;4995110;28;20030;-81
2022/04/26 10:08:30;;;;;;;1.23;0.45;;;6.10;47.80;;;;;;5011930;28;20042;-81
2022/04/26 10:10:57;;;;;;;0.82;0.50;;;6.10;47.10;;;;;;5012736;28;20033;-81
2022/04/26 10:13:32;;;;;;;0.40;0.40;;;6.00;47.10;;;;;;5012691;28;20042;-81
2022/04/26 10:16:10;;;;;;;0.60;0.30;;;6.00;47.30;;;;;;5012766;28;20060;-81
2022/04/26 10:18:44;;;;;;;4.97;0.52;;;5.90;47.20;;;;;;5012331;28;20026;-81
2022/04/26 10:21:12;;;;;;;1.88;0.40;;;5.90;48.20;;;;;;5012579;28;20026;-82
2022/04/26 10:24:01;;;;;;;0.73;0.45;;;6.00;47.90;;;;;;5013108;28;20022;-82
2022/04/26 10:26:28;;;;;;;0.93;0.60;;;6.10;49.00;;;;;;5000447;28;20030;-83
2022/04/26 10:29:20;;;;;;;0.68;0.40;;;6.30;49.00;;;;;;5012119;28;20121;-82
2022/04/26 10:31:56;;;;;;;1.05;0.47;;;6.50;48.80;;;;;;5008420;28;20084;-82
2022/04/26 10:34:26;;;;;;;2.22;0.60;;;6.50;47.80;;;;;;5013435;28;20037;-74
2022/04/26 10:37:15;;;;;;;7.38;1.23;;;6.50;48.30;;;;;;5016293;28;20018;-75
2022/04/26 10:39:42;;;;;;;16.42;1.15;;;6.50;48.90;;;;;;4985268;28;20042;-74
2022/04/26 10:42:17;;;;;;;2.70;0.47;;;6.60;48.90;;;;;;4992047;28;20029;-73
2022/04/26 10:44:45;;;;;;;14.93;0.95;;;6.60;49.10;;;;;;4989098;28;20366;-73
2022/04/26 10:47:19;;;;;;;1.25;0.45;;;6.70;49.50;;;;;;4981472;28;20023;-74
2022/04/26 10:49:47;;;;;;;1.95;0.50;;;6.70;49.50;;;;;;4972981;28;20035;-79
2022/04/26 10:52:23;;;;;;;1.50;0.60;;;6.80;49.60;;;;;;4973174;28;20019;-74
2022/04/26 10:54:55;;;;;;;2.10;0.50;;;6.90;49.70;;;;;;4980214;28;20037;-84
2022/04/26 10:57:36;;;;;;;0.68;0.40;;;7.80;67.30;;;;;;4992684;28;20026;-88
2022/04/26 11:00:13;;;;;;;2.60;0.50;;;8.00;50.70;;;;;;4991115;28;20027;-81
2022/04/26 11:02:41;;;;;;;1.05;0.50;;;7.70;47.50;;;;;;4992475;28;20069;-81
2022/04/26 11:05:10;;;;;;;1.27;0.50;;;7.20;47.30;;;;;;4992490;28;20027;-81
2022/04/26 11:07:47;;;;;;;2.60;0.40;;;6.90;48.10;;;;;;4992449;28;20030;-81
2022/04/26 11:10:15;;;;;;;1.48;0.50;;;6.70;47.60;;;;;;4992128;28;20030;-81
2022/04/26 11:12:43;;;;;;;0.55;0.50;;;6.50;47.70;;;;;;4992435;28;20034;-81
2022/04/26 11:15:14;;;;;;;0.50;0.40;;;6.50;48.10;;;;;;4992458;28;20038;-81
2022/04/26 11:17:41;;;;;;;1.35;0.65;;;6.40;48.90;;;;;;4992234;28;20030;-82
2022/04/26 11:20:12;;;;;;;6.90;0.80;;;6.30;48.70;;;;;;4995696;28;20022;-81
2022/04/26 11:22:50;;;;;;;2.17;0.57;;;6.20;49.20;;;;;;4996421;28;20033;-81
2022/04/26 11:28:09;;;;;;;1.10;0.60;;;6.30;48.90;;;;;;4996363;28;20102;-81
2022/04/26 11:30:50;;;;;;;0.60;0.60;;;6.40;49.00;;;;;;4996344;28;20041;-81
2022/04/26 11:33:23;;;;;;;1.52;0.50;;;6.40;48.50;;;;;;4995914;28;20029;-81
2022/04/26 11:36:08;;;;;;;2.67;0.55;;;6.40;48.80;;;;;;4996167;28;20113;-81
2022/04/26 11:38:33;;;;;;;1.95;0.57;;;6.40;49.00;;;;;;5024142;28;20052;-81
2022/04/26 11:41:00;;;;;;;2.13;0.60;;;6.30;47.20;;;;;;5035463;28;20068;-82
2022/04/26 11:43:28;;;;;;;1.65;0.57;;;6.40;48.70;;;;;;5035100;28;20021;-81
2022/04/26 11:45:56;;;;;;;3.47;0.50;;;6.30;47.40;;;;;;5035292;28;20037;-81
2022/04/26 11:48:25;;;;;;;6.10;0.50;;;6.30;47.90;;;;;;5034810;28;20029;-80
2022/04/26 11:50:53;;;;;;;2.50;0.50;;;6.40;47.80;;;;;;5035036;28;20034;-83
2022/04/26 11:53:21;;;;;;;3.67;0.57;;;6.30;47.30;;;;;;5034844;28;20033;-84
2022/04/26 11:56:02;;;;;;;3.17;0.50;;;6.20;47.70;;;;;;5034803;28;20026;-83
2022/04/26 11:58:27;;;;;;;0.65;0.35;;;6.20;47.40;;;;;;5017104;28;20025;-83
2022/04/26 12:00:54;;;;;;;0.38;0.30;;;6.30;47.10;;;;;;5034893;28;20114;-82
2022/04/26 12:03:22;;;;;;;0.82;0.40;;;6.30;46.00;;;;;;5034691;28;20085;-83
2022/04/26 12:06:03;;;;;;;2.33;0.57;;;6.40;45.90;;;;;;5034713;28;20363;-83
2022/04/26 12:08:35;;;;;;;1.65;0.30;;;6.50;46.90;;;;;;5035095;28;20045;-83
2022/04/26 12:11:22;;;;;;;0.55;0.32;;;6.50;46.70;;;;;;5034678;28;20473;-83
2022/04/26 12:14:08;;;;;;;0.98;0.68;;;6.30;45.60;;;;;;5034896;28;20030;-83
2022/04/26 12:16:55;;;;;;;0.40;0.40;;;6.10;46.10;;;;;;5034655;28;20025;-83
2022/04/26 12:19:41;;;;;;;1.48;0.65;;;6.00;46.50;;;;;;5016596;28;20369;-82
2022/04/26 12:22:07;;;;;;;0.75;0.40;;;6.00;48.10;;;;;;5034313;28;20476;-82
2022/04/26 12:24:45;;;;;;;0.28;0.28;;;6.00;47.60;;;;;;5034529;28;20330;-83
2022/04/26 12:27:16;;;;;;;0.93;0.50;;;6.00;47.10;;;;;;5034433;28;20029;-83
2022/04/26 12:29:47;;;;;;;0.70;0.40;;;6.00;46.60;;;;;;5033638;28;20033;-83
2022/04/26 12:32:15;;;;;;;0.82;0.57;;;6.00;46.30;;;;;;5033954;28;20111;-83
2022/04/26 12:34:52;;;;;;;1.40;0.60;;;6.00;45.80;;;;;;5034287;28;20025;-82
2022/04/26 12:37:21;;;;;;;2.33;0.50;;;6.00;46.20;;;;;;5033935;28;20049;-83
2022/04/26 12:40:09;;;;;;;1.65;0.50;;;6.00;46.10;;;;;;5034136;28;20361;-83
2022/04/26 12:42:40;;;;;;;1.33;0.40;;;6.10;46.30;;;;;;5034083;28;20022;-83
2022/04/26 12:45:23;;;;;;;1.17;0.40;;;6.10;46.40;;;;;;5034374;28;20104;-82
2022/04/26 12:50:50;;;;;;;1.77;0.55;;;6.10;45.70;;;;;;5034231;28;20052;-83
2022/04/26 12:53:28;;;;;;;0.35;0.35;;;6.00;46.30;;;;;;5033973;28;20021;-82
2022/04/26 12:56:05;;;;;;;0.40;0.40;;;6.00;45.90;;;;;;5033961;28;20439;-83
2022/04/26 12:58:37;;;;;;;1.90;0.50;;;6.00;45.40;;;;;;5033988;28;20079;-83
2022/04/26 13:01:04;;;;;;;65.43;2.92;;;6.10;46.50;;;;;;5034192;28;20079;-83
2022/04/26 13:03:30;;;;;;;10.82;0.60;;;6.20;45.90;;;;;;5033853;28;20021;-83
2022/04/26 13:06:11;;;;;;;1.67;0.43;;;6.10;44.30;;;;;;5033857;28;20504;-83
2022/04/26 13:08:39;;;;;;;0.40;0.40;;;6.10;44.70;;;;;;5034076;28;20489;-83
2022/04/26 13:11:06;;;;;;;1.65;0.63;;;6.10;45.00;;;;;;5034009;28;20469;-83
2022/04/26 13:13:34;;;;;;;0.75;0.40;;;6.10;45.00;;;;;;5033770;28;20029;-83
2022/04/26 13:16:00;;;;;;;0.52;0.40;;;6.00;45.70;;;;;;5033923;28;20369;-83
2022/04/26 13:18:27;;;;;;;0.40;0.40;;;6.10;45.80;;;;;;5033202;28;20029;-83
2022/04/26 13:20:54;;;;;;;0.40;0.40;;;6.10;45.80;;;;;;5033429;28;20083;-83
2022/04/26 13:23:22;;;;;;;2.42;0.63;;;6.00;45.30;;;;;;5033344;28;20495;-83
2022/04/26 13:25:48;;;;;;;3.08;0.40;;;5.90;45.50;;;;;;5033243;28;20418;-83
2022/04/26 13:28:14;;;;;;;2.78;0.50;;;6.00;45.10;;;;;;5033053;28;20511;-83
2022/04/26 13:30:40;;;;;;;1.40;0.40;;;5.90;45.60;;;;;;5033216;28;20566;-83
2022/04/26 13:33:06;;;;;;;0.40;0.40;;;6.00;46.00;;;;;;5033164;28;20108;-83
2022/04/26 13:35:33;;;;;;;1.23;0.50;;;6.10;46.20;;;;;;5033040;28;20036;-82
2022/04/26 13:37:59;;;;;;;1.00;0.40;;;6.30;46.90;;;;;;5015329;28;20041;-78
2022/04/26 13:40:26;;;;;;;4.35;1.38;;;6.30;45.00;;;;;;5033125;28;20022;-77
2022/04/26 13:42:51;;;;;;;16.58;1.13;;;6.30;43.60;;;;;;5032715;28;20060;-77
2022/04/26 13:45:18;;;;;;;1.17;0.60;;;6.20;43.10;;;;;;5012876;28;20042;-85
2022/04/26 13:47:45;;;;;;;0.85;0.40;;;6.20;43.00;;;;;;5012856;28;20026;-85
2022/04/26 13:50:12;;;;;;;0.30;0.30;;;6.10;42.40;;;;;;5012973;28;20026;-85
2022/04/26 13:52:40;;;;;;;0.73;0.40;;;6.00;43.30;;;;;;4995510;28;20091;-85
2022/04/26 13:55:07;;;;;;;1.77;0.50;;;6.00;44.30;;;;;;5013891;28;20032;-91
2022/04/26 13:57:33;;;;;;;1.58;0.38;;;6.00;44.40;;;;;;5014673;28;20034;-88
2022/04/26 13:59:59;;;;;;;3.20;0.60;;;6.10;44.90;;;;;;5014331;28;20022;-89
2022/04/26 14:02:25;;;;;;;0.73;0.40;;;6.10;44.50;;;;;;5013183;28;20022;-87
2022/04/26 14:04:51;;;;;;;1.50;0.40;;;6.20;44.20;;;;;;5013351;28;20378;-86
2022/04/26 14:07:19;;;;;;;0.52;0.40;;;6.20;43.60;;;;;;5012813;28;20505;-85
2022/04/26 14:09:45;;;;;;;0.50;0.50;;;6.20;42.50;;;;;;5010518;28;20398;-84
2022/04/26 14:12:14;;;;;;;1.45;0.43;;;6.00;43.20;;;;;;5012164;28;20355;-85
2022/04/26 14:22:54;;;;;;;0.30;0.30;;;5.80;43.60;;;;;;5009598;28;20551;-85
2022/04/26 14:25:20;;;;;;;1.45;0.52;;;5.70;43.10;;;;;;4994274;28;20030;-84
2022/04/26 14:27:49;;;;;;;0.43;0.40;;;5.70;42.80;;;;;;4992877;28;20042;-83
2022/04/26 14:30:16;;;;;;;1.05;0.50;;;5.70;43.90;;;;;;4995497;28;20026;-84
2022/04/26 14:32:43;;;;;;;5.75;0.50;;;5.80;44.50;;;;;;4992828;28;20026;-85
2022/04/26 14:35:10;;;;;;;1.95;0.40;;;5.80;44.40;;;;;;5011894;28;20385;-83
2022/04/26 14:37:36;;;;;;;0.75;0.40;;;5.80;43.80;;;;;;5002802;28;20046;-84
2022/04/26 14:40:03;;;;;;;1.77;0.52;;;5.70;44.10;;;;;;4992578;28;20026;-78
2022/04/26 14:42:30;;;;;;;0.50;0.40;;;5.70;44.40;;;;;;4991909;28;20018;-78
2022/04/26 14:44:57;;;;;;;1.73;0.45;;;5.70;44.70;;;;;;4992288;28;20556;-77
2022/04/26 14:47:26;;;;;;;0.90;0.57;;;5.70;44.90;;;;;;4991939;28;20018;-77
2022/04/26 14:49:54;;;;;;;2.88;0.60;;;5.70;45.10;;;;;;4991932;28;20042;-78
2022/04/26 14:52:21;;;;;;;0.38;0.38;;;5.70;45.30;;;;;;4992108;28;20014;-78
2022/04/26 14:54:47;;;;;;;0.73;0.40;;;5.60;44.30;;;;;;4991778;28;20136;-78
2022/04/26 14:57:17;;;;;;;19.38;1.10;;;5.60;44.10;;;;;;4988476;28;20019;-79
2022/04/26 14:59:47;;;;;;;2.65;0.60;;;5.60;44.90;;;;;;4991678;28;20025;-73
2022/04/26 15:02:17;;;;;;;0.65;0.45;;;5.60;45.90;;;;;;4991979;28;20030;-78
2022/04/26 15:04:44;;;;;;;5.60;0.73;;;5.70;46.30;;;;;;4992130;28;20026;-78
2022/04/26 15:07:10;;;;;;;6.07;0.77;;;5.80;46.30;;;;;;4975745;28;20022;-78
2022/04/26 15:09:51;;;;;;;4.22;0.70;;;5.90;46.20;;;;;;4981254;28;20042;-80
2022/04/26 15:17:48;;;;;;;0.60;0.45;;;6.00;45.30;;;;;;4973517;28;20053;-73
2022/04/26 15:20:15;;;;;;;0.73;0.50;;;6.10;46.10;;;;;;4987684;28;20027;-74
2022/04/26 15:22:41;;;;;;;0.63;0.50;;;6.10;46.10;;;;;;4988994;28;20355;-73
2022/04/26 15:25:09;;;;;;;0.40;0.40;;;6.00;45.80;;;;;;4986661;28;20027;-74
2022/04/26 15:27:38;;;;;;;1.83;0.40;;;5.80;46.00;;;;;;4991919;28;20453;-75
2022/04/26 15:30:05;;;;;;;0.90;0.52;;;5.80;45.70;;;;;;4992337;28;20129;-77
2022/04/26 15:32:31;;;;;;;0.45;0.45;;;5.70;45.70;;;;;;4992253;28;20029;-76
2022/04/26 15:34:56;;;;;;;0.52;0.50;;;5.60;45.40;;;;;;4992192;28;20474;-77
2022/04/26 15:37:24;;;;;;;0.57;0.50;;;5.60;45.50;;;;;;4992077;28;20058;-77
2022/04/26 15:39:51;;;;;;;1.85;0.40;;;5.60;44.40;;;;;;4992404;28;20034;-77
2022/04/26 15:42:18;;;;;;;1.20;0.70;;;5.60;44.60;;;;;;4991818;28;20027;-76
2022/04/26 15:44:44;;;;;;;1.02;0.52;;;5.60;44.70;;;;;;4991676;28;20053;-75
2022/04/26 15:47:10;;;;;;;0.85;0.60;;;5.60;44.60;;;;;;4991498;28;20030;-77
2022/04/26 15:49:36;;;;;;;2.97;0.60;;;5.60;44.70;;;;;;4991234;28;20047;-76
2022/04/26 15:52:02;;;;;;;2.58;0.63;;;5.60;45.10;;;;;;4986673;28;20053;-77
2022/04/26 15:54:28;;;;;;;3.33;0.75;;;5.60;44.90;;;;;;4991920;28;20029;-78
2022/04/26 15:56:54;;;;;;;0.35;0.35;;;5.60;44.90;;;;;;4992269;28;20026;-80
2022/04/26 15:59:20;;;;;;;0.50;0.47;;;5.50;44.90;;;;;;4992133;28;20049;-80
2022/04/26 16:01:46;;;;;;;1.85;0.95;;;5.30;44.10;;;;;;4974546;28;20445;-81
2022/04/26 16:04:12;;;;;;;2.55;0.60;;;5.30;44.60;;;;;;4992051;28;20023;-80
2022/04/26 16:06:39;;;;;;;1.08;0.50;;;5.40;45.20;;;;;;4996058;28;20026;-79
2022/04/26 16:22:47;;;;;;;2.45;0.57;;;6.20;43.20;;;;;;5015553;28;20385;-78
2022/04/26 16:25:13;;;;;;;5.03;0.50;;;5.90;43.90;;;;;;4996108;28;20027;-78
2022/04/26 16:27:40;;;;;;;0.95;0.40;;;5.70;44.20;;;;;;4995517;28;20030;-79
2022/04/26 16:30:06;;;;;;;2.78;0.52;;;5.60;44.70;;;;;;4995578;28;20038;-79
2022/04/26 16:32:34;;;;;;;0.45;0.40;;;5.50;45.00;;;;;;4995636;28;20355;-78
2022/04/26 16:35:00;;;;;;;0.90;0.50;;;5.50;45.10;;;;;;5001844;28;20029;-71
2022/04/26 16:37:25;;;;;;;0.77;0.50;;;5.50;45.20;;;;;;5014539;28;20045;-71
2022/04/26 16:39:51;;;;;;;1.33;0.50;;;5.40;45.10;;;;;;5014728;28;20022;-71
2022/04/26 16:42:17;;;;;;;3.60;0.50;;;5.40;45.30;;;;;;5006013;28;20367;-73
2022/04/26 16:44:43;;;;;;;4.38;0.50;;;5.30;45.70;;;;;;4994759;28;20026;-73
2022/04/26 16:47:10;;;;;;;0.45;0.40;;;5.20;45.70;;;;;;4995005;28;20054;-73
2022/04/26 16:49:36;;;;;;;0.57;0.38;;;5.10;45.50;;;;;;4997657;28;20085;-72
2022/04/26 16:52:04;;;;;;;1.30;0.60;;;5.00;45.70;;;;;;4997963;28;20453;-73
2022/04/26 16:54:29;;;;;;;0.95;0.43;;;5.00;46.10;;;;;;4994707;28;20033;-71
2022/04/26 16:56:55;;;;;;;1.73;0.77;;;4.90;46.40;;;;;;4995018;28;20018;-78
2022/04/26 16:59:22;;;;;;;0.50;0.50;;;5.10;48.70;;;;;;4994886;28;20061;-79
2022/04/26 17:01:49;;;;;;;3.85;0.60;;;5.00;46.70;;;;;;4994593;28;20030;-78
2022/04/26 17:04:15;;;;;;;0.30;0.30;;;4.90;47.20;;;;;;4994905;28;20031;-78
2022/04/26 17:06:41;;;;;;;0.55;0.40;;;4.90;46.90;;;;;;4994342;28;20030;-78
2022/04/26 17:09:07;;;;;;;3.13;0.52;;;4.80;47.40;;;;;;4995188;28;20100;-77
2022/04/26 17:11:42;;;;;;;0.73;0.40;;;4.90;48.30;;;;;;4994532;28;20019;-76
2022/04/26 17:14:10;;;;;;;2.45;0.47;;;4.80;48.00;;;;;;4994646;28;20080;-76
2022/04/26 17:16:36;;;;;;;1.17;0.70;;;4.80;48.40;;;;;;4993780;28;20023;-80
2022/04/26 17:19:02;;;;;;;1.23;0.40;;;4.80;50.40;;;;;;4994801;28;20018;-78
2022/04/26 17:21:28;;;;;;;0.80;0.32;;;4.70;49.00;;;;;;4993606;28;20033;-79
2022/04/26 17:23:54;;;;;;;0.75;0.47;;;4.70;48.60;;;;;;4978464;28;20023;-80